createdAt,value
2017-07-27T00:00:56.477Z,66.4
2017-07-27T00:01:57.905Z,67.2
2017-07-27T00:02:59.375Z,67.4
2017-07-27T00:04:00.847Z,68.0
2017-07-27T00:05:02.251Z,67.8
2017-07-27T00:06:03.655Z,68.2
2017-07-27T00:07:05.032Z,67.8
2017-07-27T00:08:06.422Z,67.8
2017-07-27T00:09:07.858Z,67.8
2017-07-27T00:10:09.389Z,68.2
2017-07-27T00:11:10.771Z,68.0
2017-07-27T00:12:12.154Z,68.5
2017-07-27T00:13:54.542Z,68.5
2017-07-27T00:14:55.928Z,68.4
2017-07-27T00:15:57.307Z,68.6
2017-07-27T00:16:58.682Z,68.0
2017-07-27T00:18:00.066Z,68.4
2017-07-27T00:19:01.447Z,69.1
2017-07-27T00:20:02.830Z,68.5
2017-07-27T00:21:04.224Z,68.8
2017-07-27T00:22:05.600Z,68.7
2017-07-27T00:23:06.977Z,68.4
2017-07-27T00:24:08.356Z,68.4
2017-07-27T00:25:09.738Z,68.6
2017-07-27T00:26:11.115Z,68.9
2017-07-27T00:27:12.495Z,68.8
2017-07-27T00:28:13.880Z,68.6
2017-07-27T00:29:15.256Z,68.6
2017-07-27T00:30:16.632Z,69.0
2017-07-27T00:31:18.009Z,68.9
2017-07-27T00:32:19.419Z,69.0
2017-07-27T00:33:20.796Z,68.9
2017-07-27T00:34:22.178Z,69.6
2017-07-27T00:35:23.563Z,70.1
2017-07-27T00:37:05.939Z,70.3
2017-07-27T00:38:07.315Z,69.9
2017-07-27T00:39:08.694Z,70.3
2017-07-27T00:40:10.070Z,70.8
2017-07-27T00:41:11.446Z,70.1
2017-07-27T00:42:12.830Z,70.3
2017-07-27T00:43:14.207Z,70.6
2017-07-27T00:44:15.589Z,70.7
2017-07-27T00:45:16.971Z,70.8
2017-07-27T00:46:18.346Z,70.7
2017-07-27T00:47:19.738Z,71.5
2017-07-27T00:48:21.118Z,71.2
2017-07-27T00:50:02.495Z,71.1
2017-07-27T00:51:03.872Z,71.2
2017-07-27T00:52:26.873Z,72.1
2017-07-27T00:53:28.248Z,72.0
2017-07-27T00:54:29.635Z,71.9
2017-07-27T00:55:31.010Z,72.0
2017-07-27T00:56:32.392Z,72.4
2017-07-27T00:57:33.770Z,71.6
2017-07-27T00:58:35.151Z,71.7
2017-07-27T00:59:36.535Z,72.3
2017-07-27T01:00:37.913Z,71.7
2017-07-27T01:01:39.297Z,71.7
2017-07-27T01:02:40.672Z,71.8
2017-07-27T01:03:42.056Z,71.8
2017-07-27T01:04:43.434Z,71.1
2017-07-27T01:05:44.833Z,71.7
2017-07-27T01:06:46.209Z,71.8
2017-07-27T01:07:47.585Z,71.8
2017-07-27T01:08:48.981Z,72.7
2017-07-27T01:09:50.342Z,72.7
2017-07-27T01:10:51.726Z,73.1
2017-07-27T01:11:53.101Z,73.3
2017-07-27T01:13:34.495Z,74.4
2017-07-27T01:14:35.870Z,75.0
2017-07-27T01:15:57.872Z,74.9
2017-07-27T01:16:59.268Z,75.5
2017-07-27T01:18:22.267Z,75.4
2017-07-27T01:19:23.648Z,75.8
2017-07-27T01:20:25.019Z,75.6
2017-07-27T01:21:26.402Z,75.5
2017-07-27T01:22:27.779Z,75.1
2017-07-27T01:23:29.161Z,75.7
2017-07-27T01:25:11.549Z,76.4
2017-07-27T01:26:12.927Z,76.6
2017-07-27T01:27:14.312Z,76.3
2017-07-27T01:28:15.689Z,76.6
2017-07-27T01:29:17.068Z,76.3
2017-07-27T01:30:18.446Z,76.9
2017-07-27T01:31:19.827Z,76.8
2017-07-27T01:32:21.214Z,76.8
2017-07-27T01:33:22.595Z,77.0
2017-07-27T01:34:23.973Z,77.2
2017-07-27T01:35:25.352Z,77.0
2017-07-27T01:36:26.744Z,76.7
2017-07-27T01:37:28.125Z,76.3
2017-07-27T01:38:29.504Z,77.0
2017-07-27T01:39:30.905Z,76.9
2017-07-27T01:40:32.281Z,76.9
2017-07-27T01:41:33.660Z,76.9
2017-07-27T01:42:35.048Z,77.4
2017-07-27T01:44:17.471Z,78.1
2017-07-27T01:45:18.823Z,77.6
2017-07-27T01:46:20.201Z,77.6
2017-07-27T01:47:21.580Z,77.6
2017-07-27T01:48:22.967Z,77.8
2017-07-27T01:49:24.341Z,77.6
2017-07-27T01:50:25.736Z,78.0
2017-07-27T01:51:27.108Z,77.9
2017-07-27T01:52:28.484Z,78.2
2017-07-27T01:53:29.863Z,77.8
2017-07-27T01:54:31.248Z,78.0
2017-07-27T01:55:32.625Z,77.8
2017-07-27T01:56:34.003Z,78.2
2017-07-27T01:57:35.389Z,78.2
2017-07-27T01:58:36.776Z,77.5
2017-07-27T02:00:19.174Z,77.8
2017-07-27T02:01:20.547Z,77.7
2017-07-27T02:02:21.928Z,77.7
2017-07-27T02:03:23.309Z,77.7
2017-07-27T02:04:24.691Z,77.9
2017-07-27T02:05:26.069Z,77.8
2017-07-27T02:06:27.453Z,77.7
2017-07-27T02:07:28.831Z,77.9
2017-07-27T02:08:30.225Z,78.1
2017-07-27T02:10:11.616Z,78.2
2017-07-27T02:11:12.992Z,78.4
2017-07-27T02:12:35.992Z,78.8
2017-07-27T02:13:37.367Z,79.4
2017-07-27T02:14:38.744Z,79.2
2017-07-27T02:15:40.120Z,78.6
2017-07-27T02:16:41.498Z,78.5
2017-07-27T02:17:42.876Z,78.9
2017-07-27T02:18:44.256Z,78.7
2017-07-27T02:19:45.642Z,78.8
2017-07-27T02:20:47.019Z,78.9
2017-07-27T02:22:29.465Z,78.8
2017-07-27T02:23:30.821Z,78.1
2017-07-27T02:24:32.201Z,78.6
2017-07-27T02:25:33.579Z,78.7
2017-07-27T02:26:34.959Z,78.6
2017-07-27T02:27:36.353Z,78.3
2017-07-27T02:29:18.723Z,79.2
2017-07-27T02:30:20.104Z,79.0
2017-07-27T02:31:21.483Z,79.9
2017-07-27T02:32:22.859Z,80.1
2017-07-27T02:33:24.238Z,81.2
2017-07-27T02:34:25.616Z,80.9
2017-07-27T02:35:27.018Z,81.8
2017-07-27T02:36:28.381Z,81.6
2017-07-27T02:37:29.769Z,81.8
2017-07-27T02:39:12.142Z,83.4
2017-07-27T02:40:13.524Z,83.6
2017-07-27T02:41:15.196Z,84.3
2017-07-27T02:42:16.605Z,83.9
2017-07-27T02:43:17.984Z,83.7
2017-07-27T02:44:19.362Z,84.8
2017-07-27T02:45:20.743Z,85.4
2017-07-27T02:46:22.126Z,85.1
2017-07-27T02:47:23.498Z,85.5
2017-07-27T02:48:24.878Z,85.3
2017-07-27T02:49:26.257Z,86.2
2017-07-27T02:50:27.634Z,86.1
2017-07-27T02:51:29.020Z,86.5
2017-07-27T02:52:30.408Z,86.5
2017-07-27T02:53:31.788Z,86.9
2017-07-27T02:54:33.165Z,87.1
2017-07-27T02:55:34.579Z,86.9
2017-07-27T02:56:35.954Z,86.9
2017-07-27T02:57:37.338Z,87.5
2017-07-27T02:58:38.717Z,87.5
2017-07-27T02:59:40.100Z,87.8
2017-07-27T03:01:22.496Z,87.4
2017-07-27T03:02:23.893Z,88.0
2017-07-27T03:03:25.279Z,88.1
2017-07-27T03:04:26.658Z,88.7
2017-07-27T03:05:28.035Z,88.7
2017-07-27T03:06:29.416Z,88.5
2017-07-27T03:07:30.794Z,89.1
2017-07-27T03:08:32.173Z,89.7
2017-07-27T03:09:33.549Z,89.5
2017-07-27T03:10:34.934Z,90.3
2017-07-27T03:11:36.310Z,90.2
2017-07-27T03:12:37.696Z,90.2
2017-07-27T03:13:39.071Z,90.6
2017-07-27T03:14:40.463Z,91.6
2017-07-27T03:15:41.842Z,90.6
2017-07-27T03:16:43.215Z,91.4
2017-07-27T03:18:25.585Z,91.0
2017-07-27T03:19:26.960Z,91.5
2017-07-27T03:20:28.337Z,91.1
2017-07-27T03:21:29.754Z,91.3
2017-07-27T03:22:31.134Z,90.9
2017-07-27T03:23:32.511Z,91.0
2017-07-27T03:24:33.892Z,92.0
2017-07-27T03:25:35.275Z,92.0
2017-07-27T03:26:36.665Z,91.5
2017-07-27T03:27:38.044Z,91.7
2017-07-27T03:28:39.421Z,91.7
2017-07-27T03:29:40.798Z,92.0
2017-07-27T03:30:42.182Z,92.0
2017-07-27T03:31:43.559Z,91.8
2017-07-27T03:32:44.943Z,91.8
2017-07-27T03:33:46.316Z,91.8
2017-07-27T03:34:47.711Z,91.5
2017-07-27T03:35:49.074Z,90.7
2017-07-27T03:36:50.466Z,90.6
2017-07-27T03:37:51.885Z,90.7
2017-07-27T03:38:53.244Z,90.7
2017-07-27T03:39:54.627Z,90.7
2017-07-27T03:40:56.005Z,90.8
2017-07-27T03:41:57.387Z,90.7
2017-07-27T03:42:58.763Z,91.0
2017-07-27T03:44:00.153Z,90.3
2017-07-27T03:45:01.538Z,90.6
2017-07-27T03:46:02.910Z,90.8
2017-07-27T03:47:04.421Z,90.6
2017-07-27T03:48:05.828Z,90.8
2017-07-27T03:49:07.203Z,91.4
2017-07-27T03:50:08.927Z,90.9
2017-07-27T03:51:10.750Z,91.3
2017-07-27T03:52:12.296Z,91.9
2017-07-27T03:53:13.699Z,92.0
2017-07-27T03:54:15.248Z,91.9
2017-07-27T03:55:17.282Z,91.3
2017-07-27T03:56:19.123Z,91.7
2017-07-27T03:57:20.599Z,91.7
2017-07-27T03:58:22.002Z,92.1
2017-07-27T03:59:23.414Z,92.0
2017-07-27T04:00:24.856Z,91.7
2017-07-27T04:01:26.251Z,91.5
2017-07-27T04:02:27.682Z,91.8
2017-07-27T04:03:29.101Z,91.8
2017-07-27T04:04:30.536Z,92.0
2017-07-27T04:05:32.068Z,91.6
2017-07-27T04:06:33.442Z,91.0
2017-07-27T04:07:34.974Z,91.8
2017-07-27T04:08:36.377Z,92.0
2017-07-27T04:09:37.876Z,91.8
2017-07-27T04:10:39.326Z,91.8
2017-07-27T04:11:40.710Z,91.8
2017-07-27T04:12:42.097Z,92.0
2017-07-27T04:13:43.478Z,91.0
2017-07-27T04:14:44.981Z,91.3
2017-07-27T04:15:46.370Z,92.0
2017-07-27T04:16:47.779Z,91.9
2017-07-27T04:17:49.304Z,91.8
2017-07-27T04:18:50.666Z,91.6
2017-07-27T04:19:52.051Z,91.8
2017-07-27T04:20:53.443Z,91.8
2017-07-27T04:21:54.857Z,91.7
2017-07-27T04:22:56.243Z,91.7
2017-07-27T04:23:57.682Z,91.5
2017-07-27T04:24:59.072Z,91.0
2017-07-27T04:26:00.472Z,91.7
2017-07-27T04:27:01.877Z,92.5
2017-07-27T04:28:44.261Z,91.9
2017-07-27T04:29:45.654Z,92.1
2017-07-27T04:30:47.039Z,92.0
2017-07-27T04:31:48.421Z,91.8
2017-07-27T04:32:49.809Z,92.0
2017-07-27T04:33:51.187Z,92.1
2017-07-27T04:34:52.570Z,91.8
2017-07-27T04:35:53.953Z,91.7
2017-07-27T04:36:55.336Z,91.3
2017-07-27T04:37:56.728Z,91.5
2017-07-27T04:38:58.098Z,91.2
2017-07-27T04:39:59.473Z,91.0
2017-07-27T04:41:00.866Z,90.5
2017-07-27T04:42:02.248Z,91.2
2017-07-27T04:43:03.632Z,90.7
2017-07-27T04:44:05.029Z,91.3
2017-07-27T04:45:06.409Z,90.6
2017-07-27T04:46:07.789Z,90.7
2017-07-27T04:47:09.184Z,90.6
2017-07-27T04:48:10.574Z,90.3
2017-07-27T04:49:11.958Z,90.1
2017-07-27T04:50:13.346Z,90.5
2017-07-27T04:51:14.730Z,90.4
2017-07-27T04:52:16.124Z,89.7
2017-07-27T04:53:17.505Z,90.6
2017-07-27T04:54:18.890Z,90.5
2017-07-27T04:55:20.283Z,90.1
2017-07-27T04:56:21.664Z,90.3
2017-07-27T04:57:23.054Z,90.5
2017-07-27T04:58:24.436Z,89.8
2017-07-27T04:59:25.817Z,89.7
2017-07-27T05:00:27.202Z,89.3
2017-07-27T05:01:28.588Z,89.7
2017-07-27T05:02:29.977Z,89.7
2017-07-27T05:03:31.362Z,89.8
2017-07-27T05:04:32.747Z,89.7
2017-07-27T05:05:34.128Z,89.6
2017-07-27T05:06:35.527Z,89.7
2017-07-27T05:07:36.914Z,88.6
2017-07-27T05:08:38.299Z,89.5
2017-07-27T05:09:39.793Z,88.8
2017-07-27T05:11:21.162Z,88.8
2017-07-27T05:12:22.542Z,88.5
2017-07-27T05:13:23.927Z,88.2
2017-07-27T05:14:25.318Z,88.3
2017-07-27T05:15:26.699Z,87.9
2017-07-27T05:16:28.088Z,88.2
2017-07-27T05:17:29.479Z,88.4
2017-07-27T05:18:30.864Z,88.3
2017-07-27T05:20:13.240Z,88.2
2017-07-27T05:21:14.618Z,88.5
2017-07-27T05:22:16.004Z,88.3
2017-07-27T05:23:17.395Z,87.6
2017-07-27T05:24:18.780Z,87.5
2017-07-27T05:25:20.164Z,87.7
2017-07-27T05:26:21.550Z,88.0
2017-07-27T05:27:22.933Z,88.3
2017-07-27T05:28:24.319Z,87.7
2017-07-27T05:29:25.700Z,87.4
2017-07-27T05:30:27.087Z,87.7
2017-07-27T05:31:28.470Z,87.5
2017-07-27T05:32:29.875Z,86.4
2017-07-27T05:33:31.262Z,87.5
2017-07-27T05:34:32.649Z,87.2
2017-07-27T05:35:34.031Z,87.7
2017-07-27T05:37:17.414Z,87.8
2017-07-27T05:38:18.796Z,87.7
2017-07-27T05:39:20.177Z,87.8
2017-07-27T05:40:21.566Z,87.7
2017-07-27T05:41:22.948Z,87.7
2017-07-27T05:42:24.338Z,87.8
2017-07-27T05:44:06.729Z,87.5
2017-07-27T05:45:08.114Z,88.1
2017-07-27T05:46:09.506Z,88.1
2017-07-27T05:47:10.890Z,87.7
2017-07-27T05:48:12.276Z,87.5
2017-07-27T05:49:13.660Z,87.7
2017-07-27T05:50:15.057Z,87.1
2017-07-27T05:51:57.438Z,87.6
2017-07-27T05:52:58.819Z,86.8
2017-07-27T05:54:00.205Z,86.8
2017-07-27T05:55:01.592Z,86.3
2017-07-27T05:56:03.519Z,86.1
2017-07-27T05:57:04.903Z,86.4
2017-07-27T05:58:06.293Z,85.7
2017-07-27T05:59:07.678Z,86.3
2017-07-27T06:00:09.061Z,86.2
2017-07-27T06:01:10.454Z,85.8
2017-07-27T06:02:11.842Z,85.5
2017-07-27T06:03:13.229Z,85.2
2017-07-27T06:04:14.631Z,85.2
2017-07-27T06:05:57.019Z,84.2
2017-07-27T06:06:58.407Z,82.9
2017-07-27T06:07:59.785Z,82.8
2017-07-27T06:09:01.171Z,83.1
2017-07-27T06:10:02.559Z,82.7
2017-07-27T06:11:03.943Z,82.8
2017-07-27T06:12:05.335Z,82.1
2017-07-27T06:13:06.719Z,81.4
2017-07-27T06:14:08.106Z,82.0
2017-07-27T06:15:09.493Z,82.7
2017-07-27T06:16:10.882Z,81.2
2017-07-27T06:17:53.268Z,81.9
2017-07-27T06:18:54.659Z,81.3
2017-07-27T06:19:56.039Z,81.4
2017-07-27T06:20:57.427Z,80.7
2017-07-27T06:21:58.810Z,80.2
2017-07-27T06:23:00.205Z,80.3
2017-07-27T06:24:01.590Z,80.5
2017-07-27T06:25:02.987Z,80.0
2017-07-27T06:26:04.361Z,80.0
2017-07-27T06:27:05.760Z,80.2
2017-07-27T06:28:07.145Z,80.3
2017-07-27T06:29:08.532Z,79.6
2017-07-27T06:30:09.940Z,79.8
2017-07-27T06:31:11.322Z,80.0
2017-07-27T06:32:12.709Z,79.5
2017-07-27T06:33:14.095Z,78.9
2017-07-27T06:34:15.488Z,79.3
2017-07-27T06:35:16.875Z,80.3
2017-07-27T06:36:18.261Z,79.3
2017-07-27T06:37:19.646Z,79.6
2017-07-27T06:38:21.044Z,79.8
2017-07-27T06:39:22.429Z,79.3
2017-07-27T06:40:23.821Z,78.9
2017-07-27T06:41:25.226Z,78.5
2017-07-27T06:42:26.613Z,78.9
2017-07-27T06:43:27.999Z,78.9
2017-07-27T06:44:29.385Z,79.5
2017-07-27T06:45:30.770Z,79.9
2017-07-27T06:46:32.162Z,78.5
2017-07-27T06:47:33.544Z,78.5
2017-07-27T06:48:34.991Z,77.4
2017-07-27T06:49:36.444Z,78.5
2017-07-27T06:50:37.850Z,77.7
2017-07-27T06:51:39.276Z,78.1
2017-07-27T06:52:40.708Z,77.1
2017-07-27T06:53:42.164Z,76.4
2017-07-27T06:54:43.591Z,75.1
2017-07-27T06:55:45.025Z,74.7
2017-07-27T06:56:46.433Z,74.7
2017-07-27T06:58:28.835Z,75.0
2017-07-27T06:59:30.237Z,75.0
2017-07-27T07:00:53.249Z,75.0
2017-07-27T07:01:54.634Z,74.6
2017-07-27T07:02:56.021Z,74.6
2017-07-27T07:03:57.412Z,74.8
2017-07-27T07:04:58.858Z,74.6
2017-07-27T07:06:00.216Z,74.4
2017-07-27T07:07:01.608Z,73.3
2017-07-27T07:08:02.998Z,73.6
2017-07-27T07:09:04.384Z,73.0
2017-07-27T07:10:05.775Z,73.4
2017-07-27T07:11:07.167Z,73.9
2017-07-27T07:12:08.557Z,74.0
2017-07-27T07:13:09.968Z,73.2
2017-07-27T07:14:11.356Z,73.9
2017-07-27T07:15:12.747Z,74.1
2017-07-27T07:16:14.125Z,74.0
2017-07-27T07:17:15.560Z,73.8
2017-07-27T07:18:16.970Z,73.9
2017-07-27T07:19:18.403Z,73.6
2017-07-27T07:20:19.856Z,74.4
2017-07-27T07:21:21.312Z,73.7
2017-07-27T07:22:22.724Z,73.7
2017-07-27T07:23:24.129Z,72.6
2017-07-27T07:24:25.554Z,73.0
2017-07-27T07:25:26.988Z,72.3
2017-07-27T07:26:28.382Z,72.7
2017-07-27T07:27:29.918Z,72.2
2017-07-27T07:28:31.350Z,72.7
2017-07-27T07:29:32.761Z,73.1
2017-07-27T07:30:34.199Z,72.2
2017-07-27T07:31:35.661Z,73.0
2017-07-27T07:32:37.076Z,72.0
2017-07-27T07:33:38.537Z,72.7
2017-07-27T07:34:40.052Z,73.2
2017-07-27T07:35:41.468Z,73.1
2017-07-27T07:36:42.892Z,72.4
2017-07-27T07:37:44.324Z,72.6
2017-07-27T07:38:45.786Z,72.7
2017-07-27T07:39:47.201Z,73.0
2017-07-27T07:40:48.625Z,72.3
2017-07-27T07:41:50.035Z,70.9
2017-07-27T07:42:51.428Z,71.2
2017-07-27T07:43:52.829Z,71.0
2017-07-27T07:44:54.304Z,70.5
2017-07-27T07:45:55.783Z,71.8
2017-07-27T07:46:57.213Z,71.1
2017-07-27T07:47:58.609Z,70.2
2017-07-27T07:49:00.067Z,70.3
2017-07-27T07:50:01.478Z,71.1
2017-07-27T07:51:02.908Z,71.2
2017-07-27T07:52:04.317Z,71.1
2017-07-27T07:53:05.706Z,71.0
2017-07-27T07:54:07.154Z,70.6
2017-07-27T07:55:08.578Z,69.5
2017-07-27T07:56:09.990Z,68.6
2017-07-27T07:57:11.400Z,68.7
2017-07-27T07:58:12.795Z,66.6
2017-07-27T07:59:14.195Z,67.5
2017-07-27T08:00:15.772Z,66.5
2017-07-27T08:01:17.153Z,66.8
2017-07-27T08:02:18.625Z,66.6
2017-07-27T08:03:20.093Z,65.9
2017-07-27T08:04:21.524Z,65.6
2017-07-27T08:05:22.926Z,64.2
2017-07-27T08:06:24.341Z,63.1
2017-07-27T08:07:25.757Z,63.6
2017-07-27T08:08:27.183Z,64.5
2017-07-27T08:09:28.573Z,63.8
2017-07-27T08:10:30.094Z,62.9
2017-07-27T08:11:31.517Z,62.1
2017-07-27T08:12:32.953Z,62.2
2017-07-27T08:13:34.379Z,62.0
2017-07-27T08:14:35.827Z,63.1
2017-07-27T08:15:37.232Z,62.3
2017-07-27T08:16:38.625Z,60.9
2017-07-27T08:17:40.098Z,62.3
2017-07-27T08:18:41.498Z,61.9
2017-07-27T08:19:42.894Z,60.7
2017-07-27T08:21:25.295Z,61.5
2017-07-27T08:22:26.686Z,61.7
2017-07-27T08:23:28.077Z,61.0
2017-07-27T08:24:29.466Z,60.8
2017-07-27T08:25:30.861Z,61.5
2017-07-27T08:26:32.253Z,62.5
2017-07-27T08:27:33.646Z,62.4
2017-07-27T08:28:35.040Z,63.0
2017-07-27T08:29:36.427Z,62.6
2017-07-27T08:30:37.818Z,62.8
2017-07-27T08:31:39.207Z,62.6
2017-07-27T08:32:40.604Z,63.0
2017-07-27T08:33:41.990Z,62.5
2017-07-27T08:34:43.387Z,62.9
2017-07-27T08:35:44.820Z,62.9
2017-07-27T08:36:46.219Z,62.5
2017-07-27T08:37:47.606Z,61.8
2017-07-27T08:38:48.990Z,63.0
2017-07-27T08:39:50.412Z,62.0
2017-07-27T08:40:51.802Z,62.3
2017-07-27T08:41:53.191Z,62.1
2017-07-27T08:42:54.572Z,62.0
2017-07-27T08:43:55.987Z,61.4
2017-07-27T08:44:57.377Z,60.9
2017-07-27T08:45:58.773Z,60.3
2017-07-27T08:47:40.199Z,58.0
2017-07-27T08:48:41.588Z,57.2
2017-07-27T08:49:42.977Z,57.7
2017-07-27T08:50:44.390Z,56.7
2017-07-27T08:51:45.766Z,54.9
2017-07-27T08:52:47.163Z,55.3
2017-07-27T08:53:48.590Z,55.6
2017-07-27T08:54:50.035Z,54.6
2017-07-27T08:55:51.499Z,55.2
2017-07-27T08:56:52.902Z,54.8
2017-07-27T08:57:54.314Z,52.9
2017-07-27T08:58:55.823Z,51.8
2017-07-27T08:59:57.214Z,51.3
2017-07-27T09:00:58.617Z,51.6
2017-07-27T09:02:00.087Z,50.6
2017-07-27T09:03:01.450Z,49.6
2017-07-27T09:04:02.903Z,50.2
2017-07-27T09:05:04.329Z,51.1
2017-07-27T09:06:05.771Z,52.2
2017-07-27T09:07:07.238Z,51.9
2017-07-27T09:08:08.699Z,53.0
2017-07-27T09:09:10.157Z,52.5
2017-07-27T09:10:11.627Z,52.1
2017-07-27T09:11:13.053Z,51.6
2017-07-27T09:12:14.480Z,52.8
2017-07-27T09:13:15.905Z,51.7
2017-07-27T09:14:17.356Z,50.6
2017-07-27T09:15:18.764Z,50.6
2017-07-27T09:16:20.182Z,50.6
2017-07-27T09:17:21.644Z,50.8
2017-07-27T09:18:23.072Z,50.4
2017-07-27T09:19:24.531Z,51.0
2017-07-27T09:20:26.003Z,51.0
2017-07-27T09:21:27.450Z,52.5
2017-07-27T09:22:28.890Z,53.0
2017-07-27T09:23:30.339Z,53.6
2017-07-27T09:25:12.006Z,54.1
2017-07-27T09:26:13.396Z,54.7
2017-07-27T09:27:14.787Z,54.0
2017-07-27T09:28:16.178Z,54.3
2017-07-27T09:29:17.573Z,54.5
2017-07-27T09:30:18.965Z,53.6
2017-07-27T09:31:20.365Z,53.2
2017-07-27T09:32:21.816Z,51.5
2017-07-27T09:33:23.295Z,52.1
2017-07-27T09:34:24.699Z,49.8
2017-07-27T09:36:07.112Z,50.6
2017-07-27T09:37:08.502Z,50.8
2017-07-27T09:38:09.892Z,50.8
2017-07-27T09:39:11.297Z,50.1
2017-07-27T09:40:12.689Z,48.6
2017-07-27T09:41:14.085Z,48.2
2017-07-27T09:42:15.512Z,47.5
2017-07-27T09:43:16.901Z,47.1
2017-07-27T09:44:18.296Z,48.5
2017-07-27T09:45:19.692Z,48.2
2017-07-27T09:46:21.087Z,49.7
2017-07-27T09:47:22.488Z,47.7
2017-07-27T09:48:23.900Z,48.7
2017-07-27T09:49:25.286Z,49.7
2017-07-27T09:50:26.687Z,49.7
2017-07-27T09:51:28.083Z,49.8
2017-07-27T09:53:10.496Z,51.5
2017-07-27T09:54:11.887Z,49.5
2017-07-27T09:55:13.321Z,48.5
2017-07-27T09:56:14.715Z,48.5
2017-07-27T09:57:16.111Z,50.5
2017-07-27T09:58:17.507Z,47.9
2017-07-27T09:59:18.899Z,46.2
2017-07-27T10:00:20.333Z,43.6
2017-07-27T10:01:21.709Z,41.7
2017-07-27T10:02:23.104Z,43.8
2017-07-27T10:03:24.501Z,43.3
2017-07-27T10:04:25.897Z,42.1
2017-07-27T10:05:27.304Z,39.2
2017-07-27T10:06:28.704Z,38.3
2017-07-27T10:08:11.116Z,39.6
2017-07-27T10:09:12.515Z,39.1
2017-07-27T10:10:13.912Z,41.3
2017-07-27T10:11:15.316Z,42.3
2017-07-27T10:12:16.712Z,41.2
2017-07-27T10:13:18.113Z,41.0
2017-07-27T10:14:19.510Z,41.2
2017-07-27T10:15:20.923Z,42.4
2017-07-27T10:16:22.320Z,42.8
2017-07-27T10:17:23.720Z,41.8
2017-07-27T10:18:25.119Z,42.1
2017-07-27T10:19:26.517Z,41.0
2017-07-27T10:20:27.916Z,41.3
2017-07-27T10:21:29.315Z,40.8
2017-07-27T10:23:11.728Z,37.0
2017-07-27T10:24:13.125Z,37.8
2017-07-27T10:25:14.522Z,38.7
2017-07-27T10:26:15.950Z,39.2
2017-07-27T10:27:17.573Z,38.4
2017-07-27T10:28:18.971Z,39.7
2017-07-27T10:29:20.376Z,41.1
2017-07-27T10:30:21.780Z,41.4
2017-07-27T10:31:23.175Z,41.0
2017-07-27T10:32:24.574Z,40.1
2017-07-27T10:33:25.972Z,38.2
2017-07-27T10:34:27.367Z,36.4
2017-07-27T10:35:28.767Z,36.5
2017-07-27T10:36:30.174Z,38.0
2017-07-27T10:37:31.567Z,37.4
2017-07-27T10:38:32.957Z,35.4
2017-07-27T10:39:34.358Z,35.1
2017-07-27T10:40:35.765Z,36.5
2017-07-27T10:41:37.161Z,34.3
2017-07-27T10:42:38.561Z,35.1
2017-07-27T10:43:39.971Z,35.9
2017-07-27T10:44:41.371Z,35.1
2017-07-27T10:45:42.768Z,34.4
2017-07-27T10:46:44.162Z,35.2
2017-07-27T10:47:45.577Z,35.6
2017-07-27T10:48:46.975Z,35.6
2017-07-27T10:49:48.369Z,36.8
2017-07-27T10:50:49.768Z,37.8
2017-07-27T10:51:51.175Z,38.0
2017-07-27T10:52:52.574Z,35.4
2017-07-27T10:53:53.969Z,35.0
2017-07-27T10:54:55.397Z,36.4
2017-07-27T10:55:56.775Z,35.5
2017-07-27T10:56:58.171Z,35.4
2017-07-27T10:57:59.569Z,35.0
2017-07-27T10:59:00.978Z,35.0
2017-07-27T11:00:02.371Z,33.8
2017-07-27T11:01:03.782Z,35.0
2017-07-27T11:02:05.233Z,35.4
2017-07-27T11:03:06.682Z,35.0
2017-07-27T11:04:08.084Z,36.7
2017-07-27T11:05:09.522Z,38.9
2017-07-27T11:06:10.961Z,37.4
2017-07-27T11:07:12.357Z,37.7
2017-07-27T11:08:13.759Z,37.6
2017-07-27T11:09:15.163Z,36.8
2017-07-27T11:10:16.569Z,36.1
2017-07-27T11:11:17.973Z,37.7
2017-07-27T11:12:19.373Z,35.6
2017-07-27T11:13:20.799Z,35.4
2017-07-27T11:15:03.204Z,32.4
2017-07-27T11:16:04.703Z,32.9
2017-07-27T11:17:06.105Z,34.1
2017-07-27T11:18:07.502Z,33.0
2017-07-27T11:19:08.899Z,34.1
2017-07-27T11:20:10.299Z,33.7
2017-07-27T11:21:11.702Z,32.4
2017-07-27T11:22:13.100Z,32.3
2017-07-27T11:23:14.499Z,33.5
2017-07-27T11:24:15.928Z,33.0
2017-07-27T11:25:17.327Z,34.4
2017-07-27T11:26:18.724Z,33.5
2017-07-27T11:27:20.138Z,34.4
2017-07-27T11:28:21.531Z,35.4
2017-07-27T11:29:22.939Z,35.7
2017-07-27T11:30:24.337Z,34.7
2017-07-27T11:31:25.746Z,33.8
2017-07-27T11:32:27.144Z,35.6
2017-07-27T11:33:28.552Z,36.1
2017-07-27T11:34:29.950Z,35.7
2017-07-27T11:35:31.357Z,35.2
2017-07-27T11:36:32.753Z,38.0
2017-07-27T11:37:34.154Z,37.2
2017-07-27T11:38:35.563Z,36.2
2017-07-27T11:39:36.959Z,36.1
2017-07-27T11:40:38.359Z,36.6
2017-07-27T11:41:39.759Z,36.1
2017-07-27T11:42:41.178Z,36.4
2017-07-27T11:43:42.584Z,37.5
2017-07-27T11:44:43.978Z,35.4
2017-07-27T11:45:45.711Z,36.5
2017-07-27T11:46:47.151Z,36.5
2017-07-27T11:48:28.565Z,38.1
2017-07-27T11:49:29.959Z,37.0
2017-07-27T11:50:51.971Z,37.7
2017-07-27T11:51:53.365Z,35.3
2017-07-27T11:53:15.386Z,36.7
2017-07-27T11:54:16.781Z,36.1
2017-07-27T11:55:39.801Z,36.2
2017-07-27T11:56:41.205Z,36.1
2017-07-27T11:57:42.600Z,35.7
2017-07-27T11:58:43.995Z,35.5
2017-07-27T11:59:45.395Z,36.6
2017-07-27T12:00:46.791Z,36.7
2017-07-27T12:02:28.203Z,37.8
2017-07-27T12:03:29.595Z,36.8
2017-07-27T12:04:52.609Z,36.3
2017-07-27T12:05:53.995Z,36.5
2017-07-27T12:06:55.388Z,34.8
2017-07-27T12:07:56.781Z,36.2
2017-07-27T12:08:58.179Z,36.8
2017-07-27T12:09:59.579Z,36.8
2017-07-27T12:11:00.981Z,36.2
2017-07-27T12:12:02.377Z,36.3
2017-07-27T12:13:44.792Z,36.7
2017-07-27T12:14:46.199Z,35.3
2017-07-27T12:15:47.595Z,36.8
2017-07-27T12:16:48.988Z,36.8
2017-07-27T12:17:50.423Z,34.7
2017-07-27T12:18:51.819Z,33.7
2017-07-27T12:19:53.216Z,34.1
2017-07-27T12:20:54.615Z,33.5
2017-07-27T12:21:56.013Z,34.1
2017-07-27T12:22:57.407Z,33.5
2017-07-27T12:24:38.808Z,30.6
2017-07-27T12:25:40.227Z,31.4
2017-07-27T12:27:03.234Z,29.7
2017-07-27T12:28:04.635Z,28.6
2017-07-27T12:29:06.052Z,28.0
2017-07-27T12:30:07.455Z,28.6
2017-07-27T12:31:08.849Z,28.6
2017-07-27T12:32:10.256Z,27.6
2017-07-27T12:33:11.655Z,26.6
2017-07-27T12:34:13.059Z,27.0
2017-07-27T12:35:55.451Z,25.5
2017-07-27T12:36:56.869Z,26.4
2017-07-27T12:37:58.267Z,26.4
2017-07-27T12:38:59.664Z,26.1
2017-07-27T12:40:01.070Z,25.1
2017-07-27T12:41:02.472Z,27.2
2017-07-27T12:42:03.877Z,26.5
2017-07-27T12:43:05.283Z,26.6
2017-07-27T12:44:06.680Z,26.8
2017-07-27T12:45:08.085Z,27.9
2017-07-27T12:46:09.487Z,29.4
2017-07-27T12:47:51.893Z,29.1
2017-07-27T12:48:53.290Z,28.5
2017-07-27T12:50:15.335Z,28.5
2017-07-27T12:51:16.731Z,27.9
2017-07-27T12:52:18.133Z,28.6
2017-07-27T12:53:19.530Z,28.3
2017-07-27T12:54:20.935Z,28.8
2017-07-27T12:55:22.338Z,30.0
2017-07-27T12:56:23.747Z,30.7
2017-07-27T12:57:25.148Z,28.7
2017-07-27T12:58:26.546Z,29.2
2017-07-27T12:59:27.943Z,30.5
2017-07-27T13:00:29.342Z,31.4
2017-07-27T13:01:30.750Z,30.4
2017-07-27T13:02:32.151Z,31.9
2017-07-27T13:03:33.550Z,32.7
2017-07-27T13:04:34.948Z,32.9
2017-07-27T13:05:36.347Z,34.6
2017-07-27T13:06:37.743Z,34.1
2017-07-27T13:07:39.141Z,33.3
2017-07-27T13:08:40.542Z,34.9
2017-07-27T13:09:41.936Z,36.2
2017-07-27T13:10:43.333Z,34.9
2017-07-27T13:11:44.736Z,34.9
2017-07-27T13:12:46.147Z,35.7
2017-07-27T13:13:47.543Z,35.7
2017-07-27T13:14:48.938Z,34.9
2017-07-27T13:15:50.360Z,34.6
2017-07-27T13:16:51.758Z,35.4
2017-07-27T13:17:53.156Z,34.5
2017-07-27T13:18:54.556Z,34.2
2017-07-27T13:19:55.959Z,35.0
2017-07-27T13:20:57.377Z,36.0
2017-07-27T13:21:58.775Z,36.1
2017-07-27T13:23:00.178Z,34.4
2017-07-27T13:24:01.569Z,34.3
2017-07-27T13:25:02.965Z,34.3
2017-07-27T13:26:04.368Z,33.2
2017-07-27T13:27:05.792Z,32.3
2017-07-27T13:28:07.186Z,32.8
2017-07-27T13:29:49.586Z,33.6
2017-07-27T13:30:51.027Z,31.5
2017-07-27T13:31:52.421Z,31.4
2017-07-27T13:32:53.819Z,30.6
2017-07-27T13:33:55.216Z,30.6
2017-07-27T13:34:56.613Z,30.4
2017-07-27T13:35:58.018Z,30.7
2017-07-27T13:36:59.413Z,30.6
2017-07-27T13:38:00.831Z,30.5
2017-07-27T13:39:02.221Z,27.9
2017-07-27T13:40:03.620Z,28.5
2017-07-27T13:41:05.019Z,28.8
2017-07-27T13:42:06.428Z,30.2
2017-07-27T13:43:48.856Z,29.8
2017-07-27T13:44:50.261Z,29.0
2017-07-27T13:45:51.667Z,29.0
2017-07-27T13:46:53.062Z,29.0
2017-07-27T13:47:54.462Z,27.5
2017-07-27T13:48:55.882Z,26.3
2017-07-27T13:49:57.281Z,26.1
2017-07-27T13:50:58.679Z,26.4
2017-07-27T13:52:00.074Z,28.6
2017-07-27T13:53:01.493Z,29.0
2017-07-27T13:54:02.894Z,28.7
2017-07-27T13:55:04.299Z,27.7
2017-07-27T13:56:05.731Z,28.2
2017-07-27T13:57:07.136Z,29.5
2017-07-27T13:58:08.556Z,28.9
2017-07-27T13:59:49.950Z,28.7
2017-07-27T14:00:51.376Z,29.9
2017-07-27T14:02:14.390Z,29.5
2017-07-27T14:03:15.794Z,30.0
2017-07-27T14:04:17.190Z,29.2
2017-07-27T14:05:18.584Z,28.7
2017-07-27T14:06:20.063Z,28.4
2017-07-27T14:07:21.460Z,27.4
2017-07-27T14:08:22.854Z,27.7